Time;durP1;ratioP1;P1;durP2;ratioP2;P2;SDS_P1;SDS_P2;PMS_P1;PMS_P2;Temp;Humidity;BMP_temperature;BMP_pressure;BME280_temperature;BME280_humidity;BME280_pressure;Samples;Min_cycle;Max_cycle;Signal;HPM_P1;HPM_P2
2023/10/18 00:01:27;;;;;;;19.20;15.20;;;;;;;5.96;100.00;152893.00;5007947;28;20502;-78
2023/10/18 00:03:54;;;;;;;17.80;14.17;;;;;;;5.93;100.00;152884.00;5008107;28;20483;-78
2023/10/18 00:06:22;;;;;;;24.27;14.73;;;;;;;5.87;100.00;152869.81;5013920;28;20483;-78
2023/10/18 00:08:50;;;;;;;20.50;15.40;;;;;;;5.84;100.00;152862.00;5004645;28;20856;-78
2023/10/18 00:11:17;;;;;;;19.47;14.50;;;;;;;5.83;100.00;152859.41;4999545;28;20463;-78
2023/10/18 00:13:49;;;;;;;21.23;16.50;;;;;;;5.83;100.00;152859.41;4995415;28;20869;-78
2023/10/18 00:16:16;;;;;;;20.17;17.00;;;;;;;5.82;100.00;152856.88;5007581;28;20444;-78
2023/10/18 00:18:43;;;;;;;19.13;14.70;;;;;;;5.84;100.00;152862.00;5001722;28;20457;-78
2023/10/18 00:21:10;;;;;;;16.77;13.97;;;;;;;5.85;100.00;152864.63;5023366;28;20460;-78
2023/10/18 00:23:36;;;;;;;19.60;15.80;;;;;;;5.86;100.00;152867.22;5013846;28;20479;-78
2023/10/18 00:26:06;;;;;;;24.03;16.30;;;;;;;5.86;100.00;152865.91;5006385;28;20518;-78
2023/10/18 00:28:34;;;;;;;19.20;14.93;;;;;;;5.85;100.00;152864.63;5007647;28;20918;-78
2023/10/18 00:31:13;;;;;;;21.70;16.77;;;;;;;5.84;100.00;152862.00;5026997;28;20479;-78
2023/10/18 00:33:40;;;;;;;21.67;16.97;;;;;;;5.85;100.00;152864.63;5008164;28;21238;-78
2023/10/18 00:36:09;;;;;;;22.10;17.07;;;;;;;5.84;100.00;152862.00;5005137;28;20535;-78
2023/10/18 00:38:38;;;;;;;23.30;16.93;;;;;;;5.85;100.00;152864.63;4991091;28;20491;-78
2023/10/18 00:41:07;;;;;;;22.93;17.30;;;;;;;5.84;100.00;152862.00;5017396;28;20463;-78
2023/10/18 00:43:33;;;;;;;22.10;17.60;;;;;;;5.86;100.00;152865.91;5006458;28;20487;-78
2023/10/18 00:46:00;;;;;;;21.00;15.70;;;;;;;5.84;100.00;152862.00;5006598;28;20456;-78
2023/10/18 00:48:29;;;;;;;22.50;17.07;;;;;;;5.87;100.00;152869.81;4990193;28;20491;-78
2023/10/18 00:50:58;;;;;;;22.20;17.60;;;;;;;5.87;100.00;152869.81;5007683;28;20448;-78
2023/10/18 00:53:26;;;;;;;24.23;19.27;;;;;;;5.88;100.00;152872.34;4984731;28;20992;-78
2023/10/18 00:55:57;;;;;;;23.90;18.03;;;;;;;5.88;100.00;152871.06;5002370;28;20530;-78
2023/10/18 00:58:24;;;;;;;24.80;16.63;;;;;;;5.91;100.00;152880.09;4999031;28;20562;-78
2023/10/18 01:00:51;;;;;;;24.77;18.17;;;;;;;5.98;100.00;152898.16;4986860;28;20528;-78
2023/10/18 01:03:28;;;;;;;22.13;18.00;;;;;;;5.97;100.00;152895.59;4989243;28;20485;-78
2023/10/18 01:06:01;;;;;;;23.00;17.87;;;;;;;5.95;100.00;152890.44;4995575;28;20472;-78
2023/10/18 01:08:30;;;;;;;24.60;18.80;;;;;;;6.01;100.00;152904.66;4998688;28;20460;-78
2023/10/18 01:11:03;;;;;;;24.80;17.57;;;;;;;5.96;100.00;152893.00;4986980;28;20456;-78
2023/10/18 01:13:30;;;;;;;22.27;17.70;;;;;;;5.92;100.00;152881.41;5006945;28;20448;-78
2023/10/18 01:15:59;;;;;;;24.70;18.17;;;;;;;5.87;100.00;152869.81;4987216;28;21498;-78
2023/10/18 01:18:26;;;;;;;22.60;19.20;;;;;;;5.85;100.00;152864.63;5023707;28;20491;-78
2023/10/18 01:20:53;;;;;;;25.13;17.27;;;;;;;5.88;100.00;152872.34;5019558;28;20457;-78
2023/10/18 01:23:21;;;;;;;20.53;16.80;;;;;;;5.91;100.00;152880.09;4989726;28;20484;-78
2023/10/18 01:25:49;;;;;;;24.00;17.57;;;;;;;5.88;100.00;152871.06;5007066;28;20449;-78
2023/10/18 01:28:15;;;;;;;20.37;15.10;;;;;;;5.88;100.00;152872.34;5018220;28;20456;-78
2023/10/18 01:30:43;;;;;;;19.07;15.53;;;;;;;5.93;100.00;152885.25;4992073;28;20891;-78
2023/10/18 01:33:12;;;;;;;19.50;15.40;;;;;;;5.91;100.00;152878.81;5010288;28;20803;-78
2023/10/18 01:35:46;;;;;;;21.20;17.37;;;;;;;5.96;100.00;152893.00;5016685;28;20459;-78
2023/10/18 01:38:13;;;;;;;19.73;15.70;;;;;;;5.91;100.00;152880.09;5027326;28;20475;-78
2023/10/18 01:40:52;;;;;;;22.17;17.40;;;;;;;5.86;100.00;152865.91;5008956;28;20497;-78
2023/10/18 01:43:18;;;;;;;20.23;15.23;;;;;;;5.83;100.00;152859.41;5008922;28;20487;-78
2023/10/18 01:45:48;;;;;;;21.27;17.10;;;;;;;5.81;100.00;152854.28;5005818;28;20546;-78
2023/10/18 01:48:18;;;;;;;22.90;18.80;;;;;;;5.86;100.00;152865.91;5006603;28;20796;-78
2023/10/18 01:50:45;;;;;;;22.70;17.13;;;;;;;5.84;100.00;152860.72;5007730;28;20452;-78
2023/10/18 01:53:16;;;;;;;20.97;17.60;;;;;;;5.83;100.00;152858.13;5009070;28;20456;-78
2023/10/18 01:55:51;;;;;;;22.17;17.37;;;;;;;5.80;100.00;152850.44;4994580;28;20452;-78
2023/10/18 01:58:19;;;;;;;23.77;17.13;;;;;;;5.76;100.00;152841.38;4991566;28;20995;-78
2023/10/18 02:00:49;;;;;;;25.33;18.00;;;;;;;5.74;100.00;152834.94;4988282;28;20546;-78
2023/10/18 02:03:16;;;;;;;21.37;16.80;;;;;;;5.75;100.00;152838.78;5004261;28;20926;-78
2023/10/18 02:05:43;;;;;;;22.17;16.97;;;;;;;5.74;100.00;152836.22;4986085;28;20949;-78
2023/10/18 02:08:11;;;;;;;23.50;17.80;;;;;;;5.72;100.00;152829.78;4997992;28;20461;-78
2023/10/18 02:10:40;;;;;;;23.30;17.57;;;;;;;5.74;100.00;152836.22;5018887;28;20464;-78
2023/10/18 02:13:08;;;;;;;20.53;15.77;;;;;;;5.72;100.00;152831.03;4991877;28;20547;-78
2023/10/18 02:15:39;;;;;;;21.57;17.20;;;;;;;5.73;100.00;152832.34;4990496;28;20464;-78
2023/10/18 02:18:06;;;;;;;21.53;17.60;;;;;;;5.72;100.00;152831.03;5008422;28;20453;-78
2023/10/18 02:20:35;;;;;;;23.97;15.87;;;;;;;5.71;100.00;152827.19;5017005;28;20472;-78
2023/10/18 02:23:02;;;;;;;18.53;14.97;;;;;;;5.70;100.00;152825.88;5011216;28;20852;-78
2023/10/18 02:25:42;;;;;;;21.73;16.10;;;;;;;5.71;100.00;152827.19;5010350;28;20872;-78
2023/10/18 02:28:22;;;;;;;23.93;17.37;;;;;;;5.69;100.00;152822.03;4988841;28;20865;-78
2023/10/18 02:30:55;;;;;;;21.30;16.40;;;;;;;5.67;100.00;152818.16;4993218;28;20464;-78
2023/10/18 02:33:24;;;;;;;18.73;15.77;;;;;;;5.67;100.00;152818.16;5008736;28;20990;-78
2023/10/18 02:35:51;;;;;;;23.10;17.13;;;;;;;5.64;100.00;152810.41;5007181;28;20437;-78
2023/10/18 02:38:20;;;;;;;21.60;17.63;;;;;;;5.63;100.00;152807.84;5016713;28;20462;-78
2023/10/18 02:40:47;;;;;;;19.60;15.33;;;;;;;5.62;100.00;152805.25;5007853;28;21002;-78
2023/10/18 02:43:16;;;;;;;24.90;17.17;;;;;;;5.60;100.00;152798.81;5008939;28;20468;-78
2023/10/18 02:45:51;;;;;;;21.90;16.80;;;;;;;5.62;100.00;152803.97;5008179;28;20456;-78
2023/10/18 02:48:22;;;;;;;21.30;16.77;;;;;;;5.63;100.00;152806.56;5013408;28;20487;-78
2023/10/18 02:50:49;;;;;;;25.40;17.00;;;;;;;5.63;100.00;152806.56;4993325;28;21844;-78
2023/10/18 02:53:17;;;;;;;24.90;18.67;;;;;;;5.63;100.00;152807.84;4989475;28;20440;-78
2023/10/18 02:55:49;;;;;;;20.07;15.00;;;;;;;5.66;100.00;152815.59;5002837;28;20464;-78
2023/10/18 02:58:16;;;;;;;20.50;16.87;;;;;;;5.67;100.00;152818.16;5012235;28;20450;-78
2023/10/18 03:00:44;;;;;;;21.33;16.60;;;;;;;5.66;100.00;152815.59;5007424;28;20825;-78
2023/10/18 03:03:13;;;;;;;23.03;17.73;;;;;;;5.65;100.00;152813.00;5009485;28;20508;-78
2023/10/18 03:08:34;;;;;;;20.73;16.90;;;;;;;5.65;100.00;152813.00;5071975;27;20623;-78
2023/10/18 03:11:03;;;;;;;20.80;15.23;;;;;;;5.65;100.00;152813.00;5044161;28;20453;-78
2023/10/18 03:13:31;;;;;;;25.23;18.10;;;;;;;5.66;100.00;152815.59;5046372;28;20866;-78
2023/10/18 03:16:15;;;;;;;24.33;16.80;;;;;;;5.67;100.00;152818.16;5054934;28;20647;-78
2023/10/18 03:18:44;;;;;;;22.80;17.40;;;;;;;5.67;100.00;152816.84;5044851;28;20449;-78
2023/10/18 03:21:20;;;;;;;23.70;17.20;;;;;;;5.67;100.00;152816.84;5058831;28;20434;-78
2023/10/18 03:23:51;;;;;;;23.67;18.87;;;;;;;5.68;100.00;152820.75;5047445;28;20525;-78
2023/10/18 03:26:22;;;;;;;20.90;16.87;;;;;;;5.68;100.00;152820.75;5044985;28;20481;-78
2023/10/18 03:28:50;;;;;;;22.00;15.70;;;;;;;5.67;100.00;152816.84;5053609;28;20446;-78
2023/10/18 03:31:27;;;;;;;21.83;17.67;;;;;;;5.66;100.00;152814.28;5063296;28;20823;-77
2023/10/18 03:33:59;;;;;;;21.97;17.50;;;;;;;5.62;100.00;152803.97;5080278;28;20430;-78
2023/10/18 03:36:26;;;;;;;20.57;17.53;;;;;;;5.61;100.00;152802.72;5059336;28;20449;-78
2023/10/18 03:38:54;;;;;;;25.87;19.63;;;;;;;5.58;100.00;152794.97;5044568;28;20541;-78
2023/10/18 03:41:22;;;;;;;24.83;19.90;;;;;;;5.57;100.00;152792.38;5079940;28;20441;-78
2023/10/18 03:43:58;;;;;;;24.00;19.30;;;;;;;5.56;100.00;152789.75;5075990;28;20450;-78
2023/10/18 03:46:38;;;;;;;23.23;17.57;;;;;;;5.52;100.00;152780.78;5069688;28;20984;-78
2023/10/18 03:49:08;;;;;;;22.57;18.60;;;;;;;5.51;100.00;152776.88;5058508;28;20446;-78
2023/10/18 03:51:36;;;;;;;23.23;18.50;;;;;;;5.52;100.00;152779.47;5045222;28;20435;-78
2023/10/18 03:54:05;;;;;;;20.80;18.60;;;;;;;5.51;100.00;152776.88;5071758;28;20434;-78
2023/10/18 03:56:36;;;;;;;20.80;16.27;;;;;;;5.50;100.00;152774.31;5058746;28;20446;-78
2023/10/18 03:59:10;;;;;;;19.73;17.00;;;;;;;5.47;100.00;152767.88;5074992;28;20446;-78
2023/10/18 04:01:41;;;;;;;21.43;16.57;;;;;;;5.48;100.00;152769.19;5060524;28;20485;-78
2023/10/18 04:04:09;;;;;;;25.90;18.30;;;;;;;5.43;100.00;152756.25;5053257;28;20442;-78
2023/10/18 04:06:38;;;;;;;23.33;17.90;;;;;;;5.42;100.00;152755.00;5054958;28;20544;-78
2023/10/18 04:09:16;;;;;;;20.87;16.73;;;;;;;5.38;100.00;152743.34;5053544;28;20446;-78
2023/10/18 04:11:43;;;;;;;20.80;16.27;;;;;;;5.30;100.00;152724.03;5045134;28;20450;-78
2023/10/18 04:14:16;;;;;;;21.20;15.53;;;;;;;5.26;100.00;152712.44;5063041;28;20448;-78
2023/10/18 04:16:43;;;;;;;21.40;16.60;;;;;;;5.19;100.00;152695.66;5054054;28;21010;-78
2023/10/18 04:19:10;;;;;;;21.90;18.17;;;;;;;5.20;100.00;152698.25;5051275;28;20464;-78
2023/10/18 04:21:36;;;;;;;24.67;18.93;;;;;;;5.21;100.00;152700.84;5058019;28;20549;-78
2023/10/18 04:24:04;;;;;;;24.37;17.90;;;;;;;5.25;100.00;152709.84;5042637;28;20945;-78
2023/10/18 04:26:32;;;;;;;22.23;16.77;;;;;;;5.26;100.00;152713.75;5050607;28;20449;-78
2023/10/18 04:29:01;;;;;;;20.33;16.50;;;;;;;5.25;100.00;152711.13;5040450;28;20511;-78
2023/10/18 04:31:29;;;;;;;20.10;17.07;;;;;;;5.26;100.00;152712.44;5038153;28;20450;-78
2023/10/18 04:33:57;;;;;;;20.90;16.70;;;;;;;5.26;100.00;152713.75;5050154;28;20493;-78
2023/10/18 04:36:24;;;;;;;21.20;16.80;;;;;;;5.24;100.00;152707.28;5046784;28;20537;-78
2023/10/18 04:38:51;;;;;;;20.77;16.20;;;;;;;5.22;100.00;152702.09;5043025;28;20451;-78
2023/10/18 04:41:26;;;;;;;24.80;17.97;;;;;;;5.23;100.00;152704.69;5041338;28;20799;-78
2023/10/18 04:44:05;;;;;;;18.77;16.57;;;;;;;5.26;100.00;152712.44;5061443;28;20438;-78
2023/10/18 04:46:32;;;;;;;24.27;18.47;;;;;;;5.23;100.00;152704.69;5053765;28;20459;-78
2023/10/18 04:49:00;;;;;;;23.43;17.30;;;;;;;5.27;100.00;152715.03;5048993;28;20570;-78
2023/10/18 04:51:28;;;;;;;23.90;17.53;;;;;;;5.25;100.00;152709.84;5038344;28;20765;-78
2023/10/18 04:53:57;;;;;;;21.40;17.73;;;;;;;5.26;100.00;152712.44;5014033;28;20440;-78
2023/10/18 04:56:29;;;;;;;22.90;17.23;;;;;;;5.26;100.00;152712.44;5048199;28;20458;-78
2023/10/18 04:59:00;;;;;;;21.53;17.33;;;;;;;5.25;100.00;152709.84;5062431;28;20434;-77
2023/10/18 05:01:34;;;;;;;22.27;16.90;;;;;;;5.25;100.00;152709.84;5053311;28;20462;-78
2023/10/18 05:04:18;;;;;;;20.63;16.67;;;;;;;5.22;100.00;152703.41;5062672;28;20444;-77
2023/10/18 05:06:45;;;;;;;20.50;16.20;;;;;;;5.23;100.00;152704.69;5043672;28;20481;-78
2023/10/18 05:09:13;;;;;;;21.23;17.20;;;;;;;5.20;100.00;152696.94;5044784;28;20969;-78
2023/10/18 05:11:47;;;;;;;20.63;16.33;;;;;;;5.16;100.00;152687.97;5025337;28;20483;-78
2023/10/18 05:14:35;;;;;;;20.80;16.53;;;;;;;5.33;100.00;152730.47;5061752;28;20443;-78
2023/10/18 05:17:04;;;;;;;21.87;17.57;;;;;;;5.35;100.00;152736.91;5045536;28;20458;-77
2023/10/18 05:19:37;;;;;;;19.03;16.17;;;;;;;5.35;100.00;152736.91;5058122;28;21051;-77
2023/10/18 05:22:05;;;;;;;20.90;16.93;;;;;;;5.40;100.00;152748.56;5061156;28;20482;-77
2023/10/18 05:24:36;;;;;;;19.97;16.00;;;;;;;5.34;100.00;152733.06;5043750;28;20524;-79
2023/10/18 05:27:05;;;;;;;20.90;16.73;;;;;;;5.29;100.00;152720.19;5044993;28;20455;-79
2023/10/18 05:29:43;;;;;;;22.80;17.80;;;;;;;5.24;100.00;152707.28;5042388;28;20451;-79
2023/10/18 05:32:36;;;;;;;21.50;18.53;;;;;;;5.23;100.00;152704.69;5042892;28;20452;-78
2023/10/18 05:35:03;;;;;;;20.60;16.20;;;;;;;5.20;100.00;152698.25;5062576;28;20455;-76
2023/10/18 05:37:33;;;;;;;22.50;17.50;;;;;;;5.17;100.00;152689.22;5040509;28;20467;-78
2023/10/18 05:42:46;;;;;;;26.00;18.50;;;;;;;5.16;100.00;152686.66;5060595;28;20464;-78
2023/10/18 05:45:14;;;;;;;21.37;17.77;;;;;;;5.17;100.00;152689.22;5043220;28;20814;-78
2023/10/18 05:47:42;;;;;;;20.70;17.37;;;;;;;5.15;100.00;152684.06;5042488;28;20497;-77
2023/10/18 05:50:12;;;;;;;28.63;17.03;;;;;;;5.14;100.00;152681.47;5059300;28;20454;-77
2023/10/18 05:52:49;;;;;;;22.27;16.80;;;;;;;5.08;100.00;152666.03;5058457;28;20988;-77
2023/10/18 05:55:15;;;;;;;28.17;19.40;;;;;;;5.06;100.00;152662.16;5042239;28;20567;-79
2023/10/18 05:57:45;;;;;;;25.50;17.67;;;;;;;5.05;100.00;152658.31;5037351;28;20450;-79
2023/10/18 06:00:18;;;;;;;21.93;16.80;;;;;;;5.05;100.00;152659.59;5049366;28;20455;-77
2023/10/18 06:02:45;;;;;;;24.20;18.87;;;;;;;5.02;100.00;152650.56;5040415;28;20514;-77
2023/10/18 06:05:13;;;;;;;22.77;18.57;;;;;;;5.05;100.00;152659.59;5053457;28;20822;-78
2023/10/18 06:07:41;;;;;;;25.50;19.27;;;;;;;5.05;100.00;152658.31;5041546;28;20568;-78
2023/10/18 06:10:16;;;;;;;25.80;18.93;;;;;;;5.04;100.00;152655.69;5043047;28;20501;-78
2023/10/18 06:12:46;;;;;;;24.83;18.00;;;;;;;5.04;100.00;152655.69;5044105;28;20478;-78
2023/10/18 06:15:16;;;;;;;23.60;18.57;;;;;;;5.05;100.00;152658.31;5042303;28;20662;-78
2023/10/18 06:17:47;;;;;;;25.43;19.70;;;;;;;5.11;100.00;152675.03;5043974;28;20540;-77
2023/10/18 06:20:24;;;;;;;24.47;18.50;;;;;;;5.22;100.00;152702.09;5043339;28;20463;-77
2023/10/18 06:22:53;;;;;;;24.90;17.53;;;;;;;5.34;100.00;152733.06;5044383;28;20776;-77
2023/10/18 06:25:26;;;;;;;25.30;18.83;;;;;;;5.35;100.00;152735.63;5044360;28;20546;-78
2023/10/18 06:27:54;;;;;;;24.77;19.10;;;;;;;5.40;100.00;152748.56;5043255;28;20561;-78
2023/10/18 06:30:24;;;;;;;23.23;19.53;;;;;;;5.41;100.00;152752.41;5042207;28;20450;-77
2023/10/18 06:32:51;;;;;;;21.50;18.53;;;;;;;5.48;100.00;152770.44;5042561;28;20542;-77
2023/10/18 06:35:26;;;;;;;23.50;18.33;;;;;;;5.52;100.00;152779.47;5055991;28;20454;-78
2023/10/18 06:37:52;;;;;;;24.23;20.10;;;;;;;5.56;100.00;152789.75;5042271;28;20964;-78
2023/10/18 06:40:22;;;;;;;24.13;17.40;;;;;;;5.61;100.00;152802.72;5039463;28;20456;-77
2023/10/18 06:42:49;;;;;;;24.50;19.00;;;;;;;5.63;100.00;152807.84;5042427;28;20450;-78
2023/10/18 06:45:18;;;;;;;26.50;19.00;;;;;;;5.70;100.00;152825.88;5040587;28;20455;-78
2023/10/18 06:47:46;;;;;;;22.87;17.90;;;;;;;5.78;100.00;152846.53;5044707;28;20582;-78
2023/10/18 06:50:14;;;;;;;23.90;17.50;;;;;;;5.80;100.00;152850.44;5044384;28;20528;-77
2023/10/18 06:52:44;;;;;;;23.40;18.03;;;;;;;5.86;100.00;152865.91;5044319;28;20443;-78
2023/10/18 06:55:15;;;;;;;22.63;17.60;;;;;;;5.91;100.00;152880.09;5042442;28;20608;-78
2023/10/18 06:57:43;;;;;;;21.20;18.37;;;;;;;5.94;100.00;152887.84;5053878;28;20451;-77
2023/10/18 07:00:12;;;;;;;20.13;16.60;;;;;;;5.94;100.00;152887.84;5044052;28;20462;-78
2023/10/18 07:02:39;;;;;;;23.03;17.97;;;;;;;5.96;100.00;152893.00;5041530;28;20546;-77
2023/10/18 07:05:10;;;;;;;21.40;16.97;;;;;;;5.97;100.00;152895.59;5041082;28;20451;-78
2023/10/18 07:07:37;;;;;;;21.70;17.07;;;;;;;6.00;100.00;152903.34;5039704;28;20482;-79
2023/10/18 07:10:05;;;;;;;24.67;18.80;;;;;;;6.03;100.00;152909.78;5043013;28;20455;-78
2023/10/18 07:12:44;;;;;;;24.40;18.80;;;;;;;6.05;100.00;152916.25;5040673;28;20981;-78
2023/10/18 07:15:16;;;;;;;21.83;17.80;;;;;;;6.11;100.00;152931.72;5039672;28;20493;-78
2023/10/18 07:17:43;;;;;;;23.10;17.50;;;;;;;6.14;100.00;152939.44;5044135;28;20438;-78
2023/10/18 07:20:15;;;;;;;22.33;16.83;;;;;;;6.21;100.00;152956.22;5026888;28;20778;-78
2023/10/18 07:23:03;;;;;;;23.73;17.87;;;;;;;6.26;100.00;152967.81;5060172;28;20540;-78
2023/10/18 07:25:32;;;;;;;21.67;16.77;;;;;;;6.26;100.00;152967.81;5045634;28;20452;-78
2023/10/18 07:27:59;;;;;;;21.30;16.50;;;;;;;6.28;100.00;152972.97;5043132;28;20551;-78
2023/10/18 07:30:37;;;;;;;27.20;17.33;;;;;;;6.32;100.00;152983.31;5046745;28;20467;-83
2023/10/18 07:33:09;;;;;;;22.53;18.27;;;;;;;6.33;100.00;152987.16;5048389;28;20453;-82
2023/10/18 07:35:37;;;;;;;21.80;17.17;;;;;;;6.36;100.00;152993.63;5045577;28;20442;-84
2023/10/18 07:38:04;;;;;;;23.30;17.70;;;;;;;6.44;100.00;153014.28;5026768;28;20508;-84
2023/10/18 07:40:34;;;;;;;19.87;15.87;;;;;;;6.47;100.00;153022.00;5042352;28;21251;-84
2023/10/18 07:43:05;;;;;;;20.27;16.63;;;;;;;6.51;100.00;153032.38;5045414;28;20479;-84
2023/10/18 07:45:31;;;;;;;19.67;15.70;;;;;;;6.66;100.00;153071.06;5044591;28;20474;-84
2023/10/18 07:47:58;;;;;;;19.10;15.70;;;;;;;6.89;100.00;153129.13;5044395;28;20462;-83
2023/10/18 07:50:42;;;;;;;21.73;16.80;;;;;;;6.99;100.00;153155.00;5048141;28;20458;-82
2023/10/18 07:53:13;;;;;;;19.50;15.30;;;;;;;7.08;100.00;153179.50;5050452;28;20530;-82
2023/10/18 07:55:42;;;;;;;19.07;15.57;;;;;;;7.13;100.00;153191.09;5048877;28;20478;-82
2023/10/18 07:58:21;;;;;;;20.20;16.20;;;;;;;7.20;100.00;153210.47;5049320;28;20434;-82
2023/10/18 08:01:07;;;;;;;18.40;15.00;;;;;;;7.29;100.00;153233.72;5063925;28;20500;-84
2023/10/18 08:03:46;;;;;;;17.70;14.10;;;;;;;7.41;100.00;153262.16;5047694;28;20486;-83
2023/10/18 08:06:26;;;;;;;17.67;13.77;;;;;;;7.50;100.00;153285.38;5049313;28;20572;-83
2023/10/18 08:08:55;;;;;;;17.57;15.30;;;;;;;7.64;100.00;153322.84;5046046;28;20481;-84
2023/10/18 08:11:26;;;;;;;17.33;14.07;;;;;;;7.77;99.94;153355.13;5046899;28;20537;-84
2023/10/18 08:13:54;;;;;;;15.50;12.50;;;;;;;7.89;99.76;153386.13;5046907;28;20478;-82
2023/10/18 08:16:26;;;;;;;17.17;14.23;;;;;;;8.03;97.94;153421.00;5046212;28;20458;-84
2023/10/18 08:18:57;;;;;;;19.20;12.90;;;;;;;8.15;97.02;153453.34;5047072;28;20446;-84
2023/10/18 08:21:28;;;;;;;15.90;12.80;;;;;;;8.31;97.38;153494.72;5061019;28;20474;-83
2023/10/18 08:23:57;;;;;;;17.30;13.10;;;;;;;8.47;95.68;153536.06;5048239;28;20455;-83
2023/10/18 08:26:45;;;;;;;14.60;12.60;;;;;;;8.56;94.77;153559.38;5048977;28;20890;-82
2023/10/18 08:29:14;;;;;;;15.20;12.50;;;;;;;8.71;95.85;153596.81;5046567;28;20470;-82
2023/10/18 08:31:44;;;;;;;16.10;13.23;;;;;;;8.82;96.96;153623.97;5061654;28;20447;-82
2023/10/18 08:34:23;;;;;;;17.47;13.70;;;;;;;8.86;97.48;153635.66;5047260;28;20509;-84
2023/10/18 08:36:54;;;;;;;16.17;13.57;;;;;;;8.86;97.75;153634.34;5064001;28;20451;-83
2023/10/18 08:39:25;;;;;;;17.10;15.10;;;;;;;8.82;97.20;153625.28;5048243;28;20462;-83
2023/10/18 08:41:55;;;;;;;17.53;14.07;;;;;;;8.82;96.79;153625.28;5046960;28;20904;-84
2023/10/18 08:44:24;;;;;;;20.03;15.60;;;;;;;8.84;97.58;153629.19;5062017;28;20527;-84
2023/10/18 08:47:03;;;;;;;19.20;14.77;;;;;;;8.88;98.18;153639.50;5042962;28;20448;-83
2023/10/18 08:49:33;;;;;;;20.83;14.47;;;;;;;8.95;97.68;153657.59;5046911;28;21008;-83
2023/10/18 08:52:09;;;;;;;21.27;15.10;;;;;;;8.96;96.90;153660.19;5060761;28;20448;-85
2023/10/18 08:54:41;;;;;;;19.57;15.00;;;;;;;8.99;96.75;153667.97;5057624;28;20450;-84
2023/10/18 08:57:10;;;;;;;17.10;14.27;;;;;;;8.98;97.29;153666.66;5047951;28;20450;-84
2023/10/18 08:59:47;;;;;;;20.60;14.20;;;;;;;8.98;98.02;153665.34;5048109;28;20458;-83
2023/10/18 09:02:18;;;;;;;17.77;14.30;;;;;;;9.00;95.80;153671.81;5047536;28;20508;-84
2023/10/18 09:04:54;;;;;;;18.37;13.60;;;;;;;9.07;94.07;153688.66;5027675;28;20454;-84
2023/10/18 09:07:42;;;;;;;17.53;13.97;;;;;;;9.12;94.23;153702.88;5062071;28;20486;-83
2023/10/18 09:14:07;;;;;;;16.47;13.47;;;;;;;9.23;93.39;153730.03;4929369;23;21115;-84
2023/10/18 09:16:40;;;;;;;19.30;14.30;;;;;;;9.34;93.25;153757.22;5033505;28;20833;-84
2023/10/18 09:19:07;;;;;;;18.33;14.73;;;;;;;9.37;91.55;153766.22;5036288;28;20450;-84
2023/10/18 09:21:42;;;;;;;19.07;14.67;;;;;;;9.36;91.01;153762.38;5038447;28;20528;-83
2023/10/18 09:24:09;;;;;;;17.53;14.00;;;;;;;9.35;90.45;153761.06;5019145;28;20498;-83
2023/10/18 09:26:41;;;;;;;18.13;13.87;;;;;;;9.47;91.66;153790.84;5016802;28;20455;-84
2023/10/18 09:29:10;;;;;;;15.13;12.80;;;;;;;9.52;90.63;153803.78;5018929;28;20959;-83
2023/10/18 09:31:52;;;;;;;17.03;13.80;;;;;;;9.67;90.27;153843.88;5037485;28;20446;-83
2023/10/18 09:34:19;;;;;;;15.20;12.80;;;;;;;9.72;89.82;153856.81;5018674;28;20974;-84
2023/10/18 09:36:58;;;;;;;16.37;13.53;;;;;;;9.85;88.98;153887.88;5038115;28;20455;-83
2023/10/18 09:39:37;;;;;;;18.60;12.57;;;;;;;9.88;88.01;153895.59;5035948;28;20456;-83
2023/10/18 09:42:05;;;;;;;22.83;12.13;;;;;;;9.88;87.65;153896.91;5031635;28;20960;-83
2023/10/18 09:44:32;;;;;;;14.77;11.97;;;;;;;9.90;87.91;153900.81;5025289;28;20462;-83
2023/10/18 09:46:59;;;;;;;20.20;13.10;;;;;;;9.96;87.46;153916.31;5017946;28;20451;-82
2023/10/18 09:49:28;;;;;;;16.50;12.47;;;;;;;10.01;87.21;153929.25;5040489;28;20829;-83
2023/10/18 09:52:07;;;;;;;13.30;11.70;;;;;;;9.97;87.06;153920.22;5044314;28;21160;-83
2023/10/18 09:54:35;;;;;;;13.47;10.60;;;;;;;9.95;85.91;153915.06;5002821;28;20478;-83
2023/10/18 09:57:02;;;;;;;14.77;12.10;;;;;;;9.95;86.06;153913.75;5017430;28;20542;-83
2023/10/18 09:59:31;;;;;;;13.33;10.13;;;;;;;9.90;85.25;153900.81;5018904;28;21019;-83
2023/10/18 10:02:07;;;;;;;13.53;11.03;;;;;;;9.92;85.76;153907.28;5025359;28;20456;-83
2023/10/18 10:04:35;;;;;;;12.93;11.57;;;;;;;9.98;85.58;153921.53;5017199;28;20827;-83
2023/10/18 10:09:46;;;;;;;15.00;10.80;;;;;;;9.99;87.33;153924.09;5030599;28;21020;-83
2023/10/18 10:12:16;;;;;;;16.00;12.57;;;;;;;10.04;87.75;153938.34;5034728;28;20451;-83
2023/10/18 10:14:43;;;;;;;15.70;12.13;;;;;;;10.11;86.92;153956.44;5018167;28;20483;-83
2023/10/18 10:17:12;;;;;;;13.90;12.17;;;;;;;10.22;86.41;153983.66;5017825;28;20516;-83
2023/10/18 10:19:41;;;;;;;16.30;13.00;;;;;;;10.26;86.92;153994.03;5034837;28;20462;-83
2023/10/18 10:22:08;;;;;;;15.33;11.60;;;;;;;10.33;86.10;154012.16;5016061;28;20487;-84
2023/10/18 10:24:42;;;;;;;14.30;11.83;;;;;;;10.38;86.05;154025.09;5034593;28;20451;-83
2023/10/18 10:27:21;;;;;;;13.23;11.60;;;;;;;10.42;86.19;154035.47;5019982;28;20469;-83
2023/10/18 10:29:56;;;;;;;13.93;11.00;;;;;;;10.46;86.99;154044.56;5016966;28;20509;-83
2023/10/18 10:32:24;;;;;;;14.73;11.70;;;;;;;10.55;86.13;154067.84;5019845;28;20467;-83
2023/10/18 10:34:54;;;;;;;12.87;11.47;;;;;;;10.61;85.63;154083.38;5017845;28;20520;-83
2023/10/18 10:37:23;;;;;;;12.53;10.97;;;;;;;10.78;83.84;154127.38;5035812;28;20442;-84
2023/10/18 10:39:50;;;;;;;12.37;10.40;;;;;;;10.88;84.64;154154.56;5017479;28;20451;-84
2023/10/18 10:42:41;;;;;;;13.00;9.43;;;;;;;10.99;84.11;154183.09;5035312;28;20462;-84
2023/10/18 10:45:14;;;;;;;11.07;9.30;;;;;;;11.18;82.07;154229.72;5019193;28;20541;-84
2023/10/18 10:47:44;;;;;;;9.77;8.20;;;;;;;11.37;81.92;154280.25;5018830;28;20446;-84
2023/10/18 10:50:11;;;;;;;9.33;8.20;;;;;;;11.52;81.11;154317.81;5016720;28;20463;-84
2023/10/18 10:52:40;;;;;;;8.80;7.93;;;;;;;11.59;79.58;154337.28;5037785;28;20819;-84
2023/10/18 10:55:22;;;;;;;9.73;7.83;;;;;;;11.77;79.06;154382.66;5019006;28;20487;-84
2023/10/18 10:57:50;;;;;;;9.13;7.37;;;;;;;11.86;76.78;154405.97;5031691;28;20828;-84
2023/10/18 11:03:29;;;;;;;8.90;7.60;;;;;;;12.13;75.79;154474.66;5015851;28;20498;-84
2023/10/18 11:05:58;;;;;;;8.43;6.60;;;;;;;12.24;75.31;154503.19;5015179;28;20447;-84
2023/10/18 11:08:27;;;;;;;8.17;6.77;;;;;;;12.37;76.14;154536.91;5037363;28;20455;-84
2023/10/18 11:10:53;;;;;;;7.23;6.53;;;;;;;12.54;74.12;154579.72;5027622;28;20980;-84
2023/10/18 11:13:22;;;;;;;6.70;6.00;;;;;;;12.61;70.61;154597.84;5001289;28;20451;-82
2023/10/18 11:15:52;;;;;;;7.37;5.40;;;;;;;12.61;71.57;154599.16;5002087;28;20459;-84
2023/10/18 11:18:21;;;;;;;8.20;6.10;;;;;;;12.68;71.56;154617.31;5033954;28;21255;-84
2023/10/18 11:21:05;;;;;;;7.47;6.10;;;;;;;12.69;71.95;154618.63;5035353;28;20439;-84
2023/10/18 11:23:33;;;;;;;7.77;6.87;;;;;;;12.66;73.09;154612.13;5029896;28;20459;-84
2023/10/18 11:26:00;;;;;;;9.00;7.50;;;;;;;12.74;72.83;154631.56;5031053;28;20451;-84
2023/10/18 11:28:29;;;;;;;9.63;7.00;;;;;;;12.77;72.85;154639.38;5017953;28;20459;-84
2023/10/18 11:31:00;;;;;;;6.97;6.27;;;;;;;12.80;72.59;154647.16;5013928;28;20472;-84
2023/10/18 11:33:36;;;;;;;7.73;6.80;;;;;;;12.80;72.39;154647.16;5021581;28;20526;-84
2023/10/18 11:36:03;;;;;;;8.03;7.13;;;;;;;12.79;73.53;154644.53;5041280;28;20446;-84
2023/10/18 11:38:34;;;;;;;8.17;6.77;;;;;;;12.71;73.32;154623.78;5021183;28;20969;-84
2023/10/18 11:41:04;;;;;;;7.30;6.13;;;;;;;12.69;72.50;154618.63;5040184;28;20443;-84
2023/10/18 11:43:39;;;;;;;7.03;6.33;;;;;;;12.73;72.44;154629.00;5020562;28;20462;-83